Date,TemperatureHighF,TemperatureAvgF,TemperatureLowF,DewpointHighF,DewpointAvgF,DewpointLowF,HumidityHigh,HumidityAvg,HumidityLow,PressureMaxIn,PressureMinIn,WindSpeedMaxMPH,WindSpeedAvgMPH,GustSpeedMaxMPH,PrecipitationSumIn
2013-9-1,85,75,66,66,61,52,85,64,44,30.08,30.01,10,4,16,0.00
2013-9-2,86,76,66,65,61,45,83,62,24,30.16,30.06,13,4,19,0.00
2013-9-3,87,77,68,67,63,58,76,62,42,30.19,30.14,9,4,17,0.00
2013-9-4,90,78,69,66,61,51,82,59,27,30.20,30.10,16,4,23,0.00
2013-9-5,91,78,68,66,60,52,71,56,27,30.12,29.96,14,4,24,0.00
2013-9-6,89,78,69,66,61,56,72,58,33,29.98,29.88,12,3,22,0.00
2013-9-7,89,78,70,70,64,59,79,64,38,30.11,29.97,18,4,27,0.00
2013-9-8,87,78,69,72,67,61,85,71,44,30.18,30.09,13,4,21,0.00
2013-9-9,85,77,73,73,67,58,88,72,52,30.14,30.05,15,6,26,0.02
2013-9-10,80,73,68,64,63,59,89,70,51,30.10,29.97,11,6,22,0.13
2013-9-11,79,73,67,67,63,58,90,74,54,30.01,29.94,15,6,28,0.01
2013-9-12,76,71,67,60,57,53,75,63,48,29.99,29.93,15,6,26,0.00
2013-9-13,79,70,61,59,56,49,82,64,36,30.11,29.96,16,4,22,0.00
2013-9-14,79,70,61,59,56,49,79,62,37,30.12,30.05,12,4,20,0.00
2013-9-15,73,67,63,66,61,56,93,81,62,30.08,29.82,14,3,62,0.74
2013-9-16,77,69,61,65,61,57,95,77,53,29.83,29.73,16,5,27,0.00
2013-9-17,76,70,65,64,59,50,83,70,41,29.73,29.62,18,7,27,0.00
2013-9-18,77,68,58,61,57,54,86,71,51,29.78,29.71,12,4,23,0.00
2013-9-19,79,70,62,64,60,57,84,71,54,29.84,29.70,12,4,21,0.00
2013-9-20,82,72,63,62,58,55,81,65,41,30.03,29.83,13,4,20,0.00
2013-9-21,84,72,64,62,60,55,85,66,39,30.12,30.03,14,4,22,0.00
2013-9-22,81,72,65,60,54,43,76,56,26,30.19,30.11,15,5,23,0.00
2013-9-23,80,69,60,59,53,48,76,58,35,30.17,30.08,10,5,18,0.00
2013-9-24,81,68,60,63,58,51,85,71,37,30.09,30.02,14,4,23,0.00
2013-9-25,80,68,59,62,59,55,86,74,46,30.05,29.99,15,3,19,0.00
2013-9-26,81,69,61,64,60,56,86,73,46,30.04,29.96,11,2,15,0.00
2013-9-27,83,71,63,65,60,53,87,70,36,30.01,29.95,14,4,20,0.00
2013-9-28,83,71,62,66,62,58,87,75,51,29.98,29.90,10,3,17,0.00
2013-9-29,80,73,67,70,66,63,87,79,65,29.92,29.68,15,6,25,0.17
2013-9-30,76,68,63,68,63,58,93,83,64,29.68,29.58,15,4,35,1.57